»·PEaware :: QXE2295 KSEA-KEUG

QXE2295 :: KSEA-KEUG

FLIGHT INFORMATION

Flight Status: Arrived
Operator:
Horizon Air
More flights by this operator :: More flights under this callsign
Pilot: Adlai G. (28854)
Aircraft: DEHAVILLAND DASH 8 400
(DH8D)
More flights by this aircraft type
Origin: KSEA Seattle-Tacoma Intl
United States
Destination: KEUG Mahlon Sweet
United States
More flights between these airports :: More routes between these airports
Route: HAROB6 ERAVE EUG
File this flight plan on PilotEdge
Remarks:
Altitude:
(Current/Filed)
21,000ft
Speed:
(Current/Filed)
366kts
Departed: 10-Feb-21 06:45 PM
Arrived: 10-Feb-21 07:32 PM
Distance/Time
Traveled:
203nm/0:46
Distance/Time
To Go:
Arrived

Flight Plot

Page will automatically refresh every two minutes.

Flight plan parsing failed; only flown route is shown


Map Options




Map Legend


Flown Route
Filed Route
Departure Airport
Arrival Airport
Navaid (VOR, NDB)
Fix

Horizontal Profiles

Position Reports

Time Latitude Longitude Heading Altitude Ground
Speed
10-Feb-21 17:38 47.446562 -122.304865 54 440ft 0kts
10-Feb-21 17:39 47.446562 -122.304865 54 440ft 0kts
10-Feb-21 17:40 47.446562 -122.304865 54 440ft 0kts
10-Feb-21 17:41 47.446562 -122.304865 54 440ft 0kts
10-Feb-21 17:42 47.446562 -122.304865 54 440ft 0kts
10-Feb-21 17:43 47.446562 -122.304865 54 440ft 0kts
10-Feb-21 17:44 47.446562 -122.304865 54 440ft 0kts
10-Feb-21 17:45 47.446562 -122.304865 54 440ft 0kts
10-Feb-21 17:46 47.446562 -122.304865 54 440ft 0kts
10-Feb-21 17:47 47.446562 -122.304865 54 440ft 0kts
10-Feb-21 17:48 47.446562 -122.304865 54 440ft 0kts
10-Feb-21 17:49 47.446562 -122.304865 54 440ft 0kts
10-Feb-21 17:50 47.446562 -122.304865 54 440ft 0kts
10-Feb-21 17:51 47.446562 -122.304865 54 440ft 0kts
10-Feb-21 17:52 47.446562 -122.304865 54 440ft 0kts
10-Feb-21 17:53 47.446562 -122.304865 54 440ft 0kts
10-Feb-21 17:54 47.446562 -122.304865 54 440ft 0kts
10-Feb-21 17:55 47.446562 -122.304865 54 440ft 0kts
10-Feb-21 17:57 47.446562 -122.304865 54 440ft 0kts
10-Feb-21 17:58 47.446562 -122.304865 54 440ft 0kts
10-Feb-21 17:59 47.446562 -122.304865 54 440ft 0kts
10-Feb-21 18:00 47.446562 -122.304865 54 440ft 0kts
10-Feb-21 18:01 47.446562 -122.304865 54 440ft 0kts
10-Feb-21 18:02 47.446562 -122.304865 54 440ft 0kts
10-Feb-21 18:03 47.446562 -122.304865 54 440ft 0kts
10-Feb-21 18:04 47.446562 -122.304865 54 440ft 0kts
10-Feb-21 18:05 47.446562 -122.304865 54 440ft 0kts
10-Feb-21 18:06 47.446562 -122.304865 54 440ft 0kts
10-Feb-21 18:07 47.446562 -122.304865 54 440ft 0kts
10-Feb-21 18:08 47.446562 -122.304865 54 440ft 0kts
10-Feb-21 18:09 47.446562 -122.304865 54 440ft 0kts
10-Feb-21 18:10 47.446562 -122.304865 54 440ft 0kts
10-Feb-21 18:11 47.446562 -122.304865 54 440ft 0kts
10-Feb-21 18:11 47.446562 -122.304865 54 440ft 0kts
10-Feb-21 18:13 47.446562 -122.304865 54 440ft 0kts
10-Feb-21 18:14 47.446562 -122.304865 54 440ft 0kts
10-Feb-21 18:14 47.446562 -122.304865 54 440ft 0kts
10-Feb-21 18:16 47.446562 -122.304865 54 440ft 0kts
10-Feb-21 18:16 47.446562 -122.304865 54 440ft 0kts
10-Feb-21 18:17 47.446562 -122.304865 54 440ft 0kts
10-Feb-21 18:18 47.446562 -122.304865 54 440ft 0kts
10-Feb-21 18:19 47.446562 -122.304865 54 440ft 0kts
10-Feb-21 18:20 47.446562 -122.304865 54 440ft 0kts
10-Feb-21 18:21 47.446562 -122.304865 54 440ft 0kts
10-Feb-21 18:22 47.446562 -122.304865 54 440ft 0kts
10-Feb-21 18:23 47.446562 -122.304865 54 440ft 0kts
10-Feb-21 18:24 47.446562 -122.304865 54 440ft 0kts
10-Feb-21 18:25 47.446562 -122.304865 54 440ft 0kts
10-Feb-21 18:26 47.446562 -122.304865 54 440ft 0kts
10-Feb-21 18:27 47.446562 -122.304865 54 440ft 0kts
10-Feb-21 18:28 47.446562 -122.304865 54 440ft 0kts
10-Feb-21 18:29 47.446562 -122.304865 54 440ft 0kts
10-Feb-21 18:30 47.446562 -122.304865 54 440ft 0kts
10-Feb-21 18:31 47.446562 -122.304865 54 440ft 0kts
10-Feb-21 18:32 47.446562 -122.304865 54 440ft 0kts
10-Feb-21 18:33 47.446562 -122.304865 54 440ft 0kts
10-Feb-21 18:34 47.446401 -122.305334 57 440ft 2kts
10-Feb-21 18:35 47.445972 -122.305656 0 440ft 0kts
10-Feb-21 18:36 47.445972 -122.305656 0 440ft 0kts
10-Feb-21 18:37 47.445996 -122.305655 0 440ft 0kts
10-Feb-21 18:38 47.446024 -122.305654 0 440ft 0kts
10-Feb-21 18:39 47.446959 -122.305643 0 440ft 9kts
10-Feb-21 18:40 47.449849 -122.306260 0 440ft 14kts
10-Feb-21 18:41 47.454892 -122.306219 0 440ft 18kts
10-Feb-21 18:42 47.459909 -122.306183 0 440ft 21kts
10-Feb-21 18:43 47.463382 -122.306337 314 440ft 8kts
10-Feb-21 18:44 47.452366 -122.307718 179 649ft 130kts
10-Feb-21 18:45 47.408395 -122.308047 180 2924ft 199kts
10-Feb-21 18:46 47.344610 -122.317330 210 4780ft 242kts
10-Feb-21 18:47 47.312754 -122.402294 255 7964ft 246kts
10-Feb-21 18:48 47.308487 -122.500998 272 10941ft 240kts
10-Feb-21 18:49 47.310534 -122.597658 273 13395ft 229kts
10-Feb-21 18:50 47.313024 -122.694773 277 15020ft 231kts
10-Feb-21 18:51 47.309036 -122.787753 260 16763ft 238kts
10-Feb-21 18:52 47.286390 -122.878101 259 18446ft 231kts
10-Feb-21 18:53 47.263919 -122.961501 261 20569ft 204kts
10-Feb-21 18:54 47.237166 -123.041673 241 21215ft 261kts
10-Feb-21 18:55 47.174912 -123.117005 230 21223ft 310kts
10-Feb-21 18:56 47.102538 -123.194371 228 21221ft 331kts
10-Feb-21 18:57 47.027400 -123.275192 228 21220ft 340kts
10-Feb-21 18:58 46.950761 -123.357852 228 21221ft 344kts
10-Feb-21 18:59 46.855891 -123.401286 186 21223ft 396kts
10-Feb-21 19:00 46.745716 -123.390508 186 21221ft 398kts
10-Feb-21 19:01 46.634951 -123.383307 187 21222ft 398kts
10-Feb-21 19:02 46.524627 -123.376548 186 21221ft 397kts
10-Feb-21 19:03 46.415164 -123.369052 186 21223ft 390kts
10-Feb-21 19:04 46.307243 -123.362223 186 21232ft 389kts
10-Feb-21 19:05 46.198889 -123.354887 186 21234ft 391kts
10-Feb-21 19:06 46.096242 -123.348162 185 21239ft 391kts
10-Feb-21 19:07 45.987760 -123.341116 185 21242ft 392kts
10-Feb-21 19:08 45.878880 -123.333856 185 21242ft 392kts
10-Feb-21 19:09 45.770257 -123.326802 185 21243ft 392kts
10-Feb-21 19:10 45.661202 -123.319754 185 21241ft 392kts
10-Feb-21 19:11 45.552087 -123.312679 185 21238ft 392kts
10-Feb-21 19:12 45.443116 -123.305707 185 21236ft 392kts
10-Feb-21 19:13 45.334321 -123.298745 185 21233ft 392kts
10-Feb-21 19:14 45.225354 -123.291771 185 21232ft 393kts
10-Feb-21 19:15 45.116164 -123.284911 185 21231ft 393kts
10-Feb-21 19:16 45.007111 -123.277964 185 21232ft 393kts
10-Feb-21 19:17 44.897989 -123.271116 185 20967ft 389kts
10-Feb-21 19:18 44.789704 -123.264717 184 18979ft 388kts
10-Feb-21 19:19 44.684739 -123.257887 183 17184ft 370kts
10-Feb-21 19:20 44.585435 -123.239189 151 15359ft 368kts
10-Feb-21 19:21 44.512811 -123.141148 135 13559ft 357kts
10-Feb-21 19:22 44.444764 -123.048330 135 11006ft 320kts
10-Feb-21 19:23 44.385351 -122.972984 148 9417ft 245kts
10-Feb-21 19:24 44.339776 -123.003641 255 7700ft 195kts
10-Feb-21 19:25 44.321793 -123.073826 255 5756ft 192kts
10-Feb-21 19:26 44.305290 -123.142761 255 4372ft 186kts
10-Feb-21 19:27 44.270784 -123.190013 204 2925ft 172kts
10-Feb-21 19:28 44.229190 -123.214922 206 2193ft 155kts
10-Feb-21 19:29 44.191514 -123.219526 176 1438ft 128kts
10-Feb-21 19:30 44.156261 -123.219200 178 798ft 126kts
10-Feb-21 19:31 44.127079 -123.219023 177 376ft 17kts
10-Feb-21 19:32 44.125097 -123.217595 148 376ft 0kts
10-Feb-21 19:33 44.122636 -123.215488 147 376ft 18kts
10-Feb-21 19:34 44.119419 -123.215801 166 376ft 7kts
10-Feb-21 19:35 44.119225 -123.214267 58 376ft 3kts
10-Feb-21 19:36 44.119236 -123.214242 58 376ft 0kts
10-Feb-21 19:38 44.119236 -123.214242 58 376ft 0kts
10-Feb-21 19:39 44.119236 -123.214242 58 376ft 0kts

Navigation Log

Ident Type
Flight plan parsing failed, navigation log unavailable